createdAt,value
2022-11-24T00:01:32.613Z,7.82
2022-11-24T00:04:06.743Z,20.08
2022-11-24T00:06:38.948Z,19.25
2022-11-24T00:09:11.517Z,18.85
2022-11-24T00:11:43.688Z,15.57
2022-11-24T00:14:15.853Z,14.30
2022-11-24T00:16:47.978Z,10.20
2022-11-24T00:19:20.147Z,13.25
2022-11-24T00:21:52.175Z,16.88
2022-11-24T00:24:24.312Z,18.00
2022-11-24T00:26:56.432Z,10.48
2022-11-24T00:29:28.580Z,19.77
2022-11-24T00:32:02.697Z,12.70
2022-11-24T00:34:35.281Z,20.45
2022-11-24T00:37:07.720Z,15.85
2022-11-24T00:39:39.798Z,11.60
2022-11-24T00:42:11.971Z,15.75
2022-11-24T00:44:44.114Z,15.20
2022-11-24T00:47:16.333Z,16.88
2022-11-24T00:49:48.572Z,25.60
2022-11-24T00:52:20.686Z,11.10
2022-11-24T00:54:53.077Z,20.23
2022-11-24T00:57:25.311Z,17.88
2022-11-24T00:59:57.367Z,16.25
2022-11-24T01:02:29.478Z,18.25
2022-11-24T01:05:04.466Z,17.95
2022-11-24T01:07:36.593Z,13.35
2022-11-24T01:10:09.370Z,16.42
2022-11-24T01:12:41.578Z,16.23
2022-11-24T01:15:13.855Z,12.02
2022-11-24T01:17:46.285Z,16.38
2022-11-24T01:20:18.641Z,17.35
2022-11-24T01:22:51.065Z,13.65
2022-11-24T01:25:23.459Z,12.57
2022-11-24T01:27:55.712Z,10.00
2022-11-24T01:30:27.780Z,14.45
2022-11-24T01:32:59.914Z,13.63
2022-11-24T01:35:31.939Z,14.68
2022-11-24T01:38:03.982Z,20.60
2022-11-24T01:40:36.034Z,14.07
2022-11-24T01:43:18.543Z,14.18
2022-11-24T01:45:51.146Z,19.38
2022-11-24T01:48:38.376Z,12.73
2022-11-24T01:51:20.938Z,14.60
2022-11-24T01:54:03.183Z,14.57
2022-11-24T01:56:37.399Z,21.45
2022-11-24T01:59:12.699Z,13.73
2022-11-24T02:01:45.355Z,18.45
2022-11-24T02:04:24.176Z,19.20
2022-11-24T02:07:00.202Z,21.83
2022-11-24T02:09:52.457Z,15.10
2022-11-24T02:12:26.984Z,18.77
2022-11-24T02:14:59.683Z,12.57
2022-11-24T02:17:31.814Z,13.07
2022-11-24T02:20:08.400Z,19.05
2022-11-24T02:23:07.420Z,15.13
2022-11-24T02:26:03.838Z,16.63
2022-11-24T02:28:36.514Z,18.88
2022-11-24T02:31:09.374Z,17.00
2022-11-24T02:33:41.581Z,25.77
2022-11-24T02:36:13.717Z,23.27
2022-11-24T02:38:45.885Z,19.05
2022-11-24T02:41:22.153Z,18.48
2022-11-24T02:44:01.506Z,13.88
2022-11-24T02:46:33.616Z,18.80
2022-11-24T02:49:05.952Z,19.90
2022-11-24T02:51:38.127Z,14.35
2022-11-24T02:54:10.287Z,17.92
2022-11-24T02:56:42.463Z,21.70
2022-11-24T02:59:14.624Z,16.27
2022-11-24T03:01:46.815Z,14.20
2022-11-24T03:04:19.011Z,18.00
2022-11-24T03:06:51.252Z,17.35
2022-11-24T03:09:23.349Z,16.20
2022-11-24T03:11:55.470Z,24.25
2022-11-24T03:14:27.651Z,21.40
2022-11-24T03:16:59.857Z,15.38
2022-11-24T03:19:31.961Z,14.77
2022-11-24T03:22:04.163Z,24.27
2022-11-24T03:24:36.448Z,17.45
2022-11-24T03:27:08.727Z,17.27
2022-11-24T03:29:40.937Z,18.67
2022-11-24T03:32:13.062Z,16.42
2022-11-24T03:34:45.281Z,18.58
2022-11-24T03:37:17.413Z,18.83
2022-11-24T03:39:49.828Z,23.98
2022-11-24T03:42:21.980Z,20.40
2022-11-24T03:44:54.208Z,30.27
2022-11-24T03:47:26.287Z,24.55
2022-11-24T03:49:58.392Z,23.02
2022-11-24T03:52:30.564Z,22.00
2022-11-24T03:55:02.674Z,22.95
2022-11-24T03:57:34.871Z,27.60
2022-11-24T04:00:08.208Z,24.92
2022-11-24T04:02:40.316Z,32.63
2022-11-24T04:05:12.421Z,26.23
2022-11-24T04:07:44.609Z,18.42
2022-11-24T04:10:16.865Z,18.50
2022-11-24T04:12:49.027Z,22.25
2022-11-24T04:15:21.990Z,28.75
2022-11-24T04:17:55.737Z,30.77
2022-11-24T04:20:28.043Z,21.98
2022-11-24T04:23:00.228Z,16.95
2022-11-24T04:25:32.428Z,16.15
2022-11-24T04:28:04.870Z,19.55
2022-11-24T04:30:38.707Z,26.33
2022-11-24T04:33:10.944Z,36.85
2022-11-24T04:35:42.964Z,25.73
2022-11-24T04:39:25.984Z,28.38
2022-11-24T04:41:06.945Z,43.58
2022-11-24T04:43:40.785Z,22.33
2022-11-24T04:46:13.162Z,25.23
2022-11-24T04:48:45.238Z,27.92
2022-11-24T04:51:17.249Z,24.98
2022-11-24T04:53:49.625Z,31.30
2022-11-24T04:56:21.794Z,25.05
2022-11-24T04:58:53.823Z,24.52
2022-11-24T05:01:26.267Z,33.17
2022-11-24T05:03:58.908Z,40.17
2022-11-24T05:06:31.094Z,29.70
2022-11-24T05:09:03.766Z,22.65
2022-11-24T05:11:35.898Z,27.98
2022-11-24T05:14:07.975Z,25.30
2022-11-24T05:16:40.063Z,38.85
2022-11-24T05:19:12.288Z,32.08
2022-11-24T05:21:44.279Z,36.08
2022-11-24T05:24:16.286Z,30.63
2022-11-24T05:26:48.215Z,43.50
2022-11-24T05:29:20.144Z,42.28
2022-11-24T05:31:52.235Z,34.60
2022-11-24T05:34:24.630Z,33.97
2022-11-24T05:37:03.044Z,34.20
2022-11-24T05:39:36.327Z,37.13
2022-11-24T05:42:27.438Z,34.17
2022-11-24T05:44:59.818Z,36.80
2022-11-24T05:47:32.468Z,34.08
2022-11-24T05:50:05.061Z,34.20
2022-11-24T05:52:37.219Z,38.45
2022-11-24T05:55:11.656Z,34.03
2022-11-24T05:57:43.673Z,35.92
2022-11-24T06:00:18.258Z,33.72
2022-11-24T06:02:50.279Z,32.05
2022-11-24T06:05:22.446Z,35.28
2022-11-24T06:07:55.295Z,29.23
2022-11-24T06:10:28.361Z,24.80
2022-11-24T06:13:06.285Z,30.42
2022-11-24T06:15:38.679Z,29.08
2022-11-24T06:18:10.728Z,40.47
2022-11-24T06:20:53.086Z,26.20
2022-11-24T06:23:35.304Z,43.45
2022-11-24T06:26:07.529Z,32.28
2022-11-24T06:28:39.588Z,32.17
2022-11-24T06:31:11.823Z,38.13
2022-11-24T06:33:43.787Z,32.05
2022-11-24T06:36:15.884Z,32.72
2022-11-24T06:38:47.916Z,40.92
2022-11-24T06:41:20.376Z,47.47
2022-11-24T06:43:52.425Z,37.03
2022-11-24T06:46:24.810Z,30.10
2022-11-24T06:48:56.863Z,34.38
2022-11-24T06:51:29.126Z,40.28
2022-11-24T06:54:01.839Z,44.45
2022-11-24T06:56:34.092Z,48.38
2022-11-24T06:59:06.127Z,36.08
2022-11-24T07:01:38.140Z,32.70
2022-11-24T07:04:11.452Z,33.65
2022-11-24T07:06:44.070Z,35.13
2022-11-24T07:09:16.162Z,34.70
2022-11-24T07:11:48.216Z,27.92
2022-11-24T07:14:20.205Z,36.47
2022-11-24T07:16:52.284Z,26.33
2022-11-24T07:19:25.225Z,33.40
2022-11-24T07:21:57.609Z,40.35
2022-11-24T07:24:29.597Z,29.23
2022-11-24T07:27:01.529Z,25.15
2022-11-24T07:29:33.730Z,37.60
2022-11-24T07:32:06.047Z,34.85
2022-11-24T07:34:38.050Z,33.38
2022-11-24T07:37:10.058Z,31.08
2022-11-24T07:39:42.042Z,36.67
2022-11-24T07:42:13.972Z,32.17
2022-11-24T07:44:45.999Z,35.10
2022-11-24T07:47:17.925Z,37.17
2022-11-24T07:49:50.067Z,36.72
2022-11-24T07:52:22.101Z,41.53
2022-11-24T07:54:54.193Z,39.05
2022-11-24T07:57:26.438Z,37.20
2022-11-24T07:59:58.417Z,27.85
2022-11-24T08:02:30.436Z,41.42
2022-11-24T08:05:02.492Z,33.58
2022-11-24T08:07:34.611Z,36.97
2022-11-24T08:10:07.386Z,25.58
2022-11-24T08:12:39.475Z,32.95
2022-11-24T08:15:11.694Z,33.92
2022-11-24T08:17:43.742Z,37.10
2022-11-24T08:20:15.898Z,18.55
2022-11-24T08:22:47.963Z,37.67
2022-11-24T08:25:20.027Z,31.20
2022-11-24T08:27:51.949Z,25.92
2022-11-24T08:30:24.148Z,31.20
2022-11-24T08:32:59.334Z,33.13
2022-11-24T08:35:31.303Z,32.70
2022-11-24T08:38:04.767Z,40.38
2022-11-24T08:40:36.959Z,44.20
2022-11-24T08:43:09.000Z,34.95
2022-11-24T08:45:41.816Z,28.55
2022-11-24T08:48:14.054Z,28.60
2022-11-24T08:50:46.118Z,40.38
2022-11-24T08:53:18.957Z,28.27
2022-11-24T08:55:51.152Z,34.08
2022-11-24T08:58:23.122Z,30.85
2022-11-24T09:00:55.636Z,33.25
2022-11-24T09:03:27.969Z,23.48
2022-11-24T09:06:00.205Z,32.45
2022-11-24T09:08:33.139Z,33.75
2022-11-24T09:11:14.247Z,28.20
2022-11-24T09:13:46.257Z,35.50
2022-11-24T09:16:25.962Z,25.00
2022-11-24T09:19:04.879Z,22.73
2022-11-24T09:21:39.068Z,26.05
2022-11-24T09:24:11.426Z,26.92
2022-11-24T09:26:47.692Z,24.17
2022-11-24T09:29:20.021Z,33.75
2022-11-24T09:31:51.989Z,27.30
2022-11-24T09:34:24.055Z,32.75
2022-11-24T09:36:56.025Z,20.85
2022-11-24T09:39:28.052Z,25.33
2022-11-24T09:42:06.614Z,26.60
2022-11-24T09:44:56.468Z,22.45
2022-11-24T09:48:01.567Z,34.53
2022-11-24T09:50:40.020Z,23.90
2022-11-24T09:53:56.662Z,31.15
2022-11-24T09:56:33.670Z,39.40
2022-11-24T09:59:15.671Z,33.50
2022-11-24T10:01:49.761Z,27.52
2022-11-24T10:04:35.510Z,26.08
2022-11-24T10:07:23.938Z,38.83
2022-11-24T10:10:02.474Z,23.38
2022-11-24T10:12:56.055Z,29.40
2022-11-24T10:15:54.661Z,26.40
2022-11-24T10:19:03.495Z,25.55
2022-11-24T10:22:08.643Z,21.58
2022-11-24T10:25:18.246Z,25.33
2022-11-24T10:28:02.472Z,30.77
2022-11-24T10:30:34.494Z,22.33
2022-11-24T10:33:15.839Z,29.35
2022-11-24T10:36:04.588Z,31.15
2022-11-24T10:38:51.004Z,23.15
2022-11-24T10:41:36.833Z,30.90
2022-11-24T10:44:14.256Z,23.40
2022-11-24T10:46:46.534Z,28.65
2022-11-24T10:49:32.835Z,24.13
2022-11-24T10:52:15.295Z,25.17
2022-11-24T10:55:13.811Z,24.55
2022-11-24T10:57:46.000Z,28.05
2022-11-24T11:00:20.957Z,25.95
2022-11-24T11:03:21.899Z,33.70
2022-11-24T11:06:14.762Z,23.23
2022-11-24T11:08:46.819Z,31.35
2022-11-24T11:11:30.766Z,29.80
2022-11-24T11:14:13.151Z,26.52
2022-11-24T11:16:54.400Z,27.35
2022-11-24T11:19:49.749Z,23.15
2022-11-24T11:22:26.092Z,32.22
2022-11-24T11:25:10.030Z,24.08
2022-11-24T11:27:42.815Z,23.15
2022-11-24T11:36:20.463Z,24.55
2022-11-24T11:38:53.173Z,22.30
2022-11-24T11:41:33.261Z,29.05
2022-11-24T11:44:38.523Z,33.80
2022-11-24T11:47:42.693Z,18.25
2022-11-24T11:50:17.845Z,37.90
2022-11-24T11:53:26.419Z,21.58
2022-11-24T11:56:33.528Z,26.05
2022-11-24T11:59:49.939Z,26.80
2022-11-24T12:03:15.498Z,28.10
2022-11-24T12:06:19.456Z,22.83
2022-11-24T12:09:21.337Z,19.65
2022-11-24T12:12:27.232Z,27.63
2022-11-24T12:15:13.650Z,24.48
2022-11-24T12:18:03.073Z,22.73
2022-11-24T12:21:29.806Z,23.80
2022-11-24T12:24:32.125Z,18.38
2022-11-24T12:27:42.653Z,21.25
2022-11-24T12:33:29.588Z,14.30
2022-11-24T12:37:12.458Z,18.63
2022-11-24T12:40:13.339Z,22.10
2022-11-24T12:43:06.229Z,22.45
2022-11-24T12:45:56.497Z,19.17
2022-11-24T12:48:48.036Z,23.48
2022-11-24T12:51:28.509Z,24.25
2022-11-24T12:54:05.388Z,17.85
2022-11-24T12:57:07.045Z,24.15
2022-11-24T13:00:09.461Z,21.50
2022-11-24T13:03:14.350Z,19.83
2022-11-24T13:06:11.039Z,14.98
2022-11-24T13:08:43.620Z,17.13
2022-11-24T13:11:41.696Z,12.80
2022-11-24T13:14:49.807Z,17.83
2022-11-24T13:17:47.470Z,16.00
2022-11-24T13:23:04.340Z,11.60
2022-11-24T13:25:36.793Z,14.65
2022-11-24T13:29:17.962Z,21.42
2022-11-24T13:32:19.328Z,12.55
2022-11-24T13:34:55.091Z,20.38
2022-11-24T13:37:34.985Z,18.90
2022-11-24T13:40:14.279Z,13.70
2022-11-24T13:42:57.894Z,9.15
2022-11-24T13:45:41.990Z,16.27
2022-11-24T13:48:34.277Z,19.85
2022-11-24T13:51:08.963Z,16.88
2022-11-24T13:53:40.857Z,21.45
2022-11-24T13:56:12.887Z,13.15
2022-11-24T13:58:58.444Z,24.17
2022-11-24T14:01:36.915Z,24.33
2022-11-24T14:04:30.646Z,19.35
2022-11-24T14:09:59.081Z,19.63
2022-11-24T14:12:33.818Z,20.17
2022-11-24T14:15:27.189Z,11.75
2022-11-24T14:17:59.179Z,15.85
2022-11-24T14:20:31.100Z,10.18
2022-11-24T14:23:03.174Z,20.30
2022-11-24T14:25:36.022Z,11.88
2022-11-24T14:28:26.546Z,18.17
2022-11-24T14:31:18.257Z,13.20
2022-11-24T14:33:51.400Z,22.67
2022-11-24T14:36:23.456Z,12.77
2022-11-24T14:38:55.513Z,18.65
2022-11-24T14:41:28.489Z,18.70
2022-11-24T14:44:21.503Z,13.07
2022-11-24T14:47:31.370Z,13.88
2022-11-24T14:50:18.180Z,14.85
2022-11-24T14:52:59.968Z,12.10
2022-11-24T14:55:35.412Z,10.32
2022-11-24T14:58:40.537Z,9.77
2022-11-24T15:01:28.742Z,17.52
2022-11-24T15:05:01.105Z,13.73
2022-11-24T15:07:26.621Z,55.65
2022-11-24T15:10:06.026Z,62.03
2022-11-24T15:12:41.815Z,16.00
2022-11-24T15:15:20.593Z,15.40
2022-11-24T15:18:01.099Z,25.42
2022-11-24T15:20:42.404Z,15.45
2022-11-24T15:23:23.793Z,25.25
2022-11-24T15:25:58.177Z,23.15
2022-11-24T15:28:31.472Z,17.23
2022-11-24T15:31:09.185Z,22.00
2022-11-24T15:33:42.354Z,25.27
2022-11-24T15:36:16.760Z,29.23
2022-11-24T15:38:48.770Z,25.70
2022-11-24T15:41:23.225Z,24.08
2022-11-24T15:44:01.843Z,18.48
2022-11-24T15:46:38.289Z,16.83
2022-11-24T15:49:10.497Z,19.67
2022-11-24T15:51:45.279Z,20.20
2022-11-24T15:54:19.061Z,22.42
2022-11-24T15:56:51.186Z,21.95
2022-11-24T15:59:23.306Z,18.58
2022-11-24T16:01:55.378Z,18.65
2022-11-24T16:04:28.088Z,24.73
2022-11-24T16:07:00.785Z,17.75
2022-11-24T16:09:32.754Z,24.33
2022-11-24T16:12:05.240Z,26.13
2022-11-24T16:14:37.583Z,23.63
2022-11-24T16:17:09.815Z,20.95
2022-11-24T16:19:42.286Z,20.52
2022-11-24T16:22:14.354Z,19.58
2022-11-24T16:24:46.340Z,21.38
2022-11-24T16:27:18.319Z,24.67
2022-11-24T16:29:50.341Z,19.55
2022-11-24T16:32:22.333Z,18.40
2022-11-24T16:34:54.281Z,19.65
2022-11-24T16:37:26.392Z,18.02
2022-11-24T16:39:58.643Z,19.40
2022-11-24T16:42:31.428Z,18.25
2022-11-24T16:45:04.214Z,25.70
2022-11-24T16:47:40.533Z,28.75
2022-11-24T16:50:12.811Z,25.52
2022-11-24T16:52:44.870Z,31.02
2022-11-24T16:55:16.949Z,26.65
2022-11-24T16:57:49.274Z,27.60
2022-11-24T17:00:21.466Z,21.88
2022-11-24T17:02:53.677Z,21.75
2022-11-24T17:05:25.817Z,25.52
2022-11-24T17:07:58.780Z,32.80
2022-11-24T17:10:31.134Z,30.77
2022-11-24T17:13:03.130Z,31.90
2022-11-24T17:15:44.506Z,28.35
2022-11-24T17:18:24.529Z,34.20
2022-11-24T17:21:07.890Z,25.50
2022-11-24T17:23:42.053Z,27.42
2022-11-24T17:26:17.004Z,26.98
2022-11-24T17:28:49.034Z,24.50
2022-11-24T17:31:26.042Z,25.58
2022-11-24T17:34:00.364Z,21.73
2022-11-24T17:36:34.139Z,28.83
2022-11-24T17:39:07.536Z,28.10
2022-11-24T17:41:39.678Z,29.13
2022-11-24T17:44:12.763Z,29.63
2022-11-24T17:46:44.848Z,33.88
2022-11-24T17:49:16.952Z,29.80
2022-11-24T17:51:50.628Z,35.63
2022-11-24T17:57:14.645Z,35.13
2022-11-24T17:59:46.729Z,31.45
2022-11-24T18:02:19.592Z,29.95
2022-11-24T18:04:51.692Z,36.30
2022-11-24T18:07:23.724Z,33.05
2022-11-24T18:09:55.848Z,30.42
2022-11-24T18:12:27.984Z,35.97
2022-11-24T18:15:00.237Z,32.42
2022-11-24T18:17:32.228Z,34.85
2022-11-24T18:20:04.657Z,44.22
2022-11-24T18:23:04.141Z,43.90
2022-11-24T18:25:29.767Z,48.53
2022-11-24T18:28:01.747Z,42.15
2022-11-24T18:30:33.735Z,40.60
2022-11-24T18:33:05.778Z,39.58
2022-11-24T18:35:39.725Z,32.97
2022-11-24T18:38:11.768Z,39.60
2022-11-24T18:40:43.810Z,43.33
2022-11-24T18:43:15.886Z,30.38
2022-11-24T18:45:47.947Z,43.75
2022-11-24T18:48:22.117Z,38.70
2022-11-24T18:50:56.752Z,49.90
2022-11-24T18:53:29.482Z,43.97
2022-11-24T18:56:05.454Z,39.38
2022-11-24T18:58:37.669Z,46.92
2022-11-24T19:01:09.640Z,37.25
2022-11-24T19:03:49.241Z,47.63
2022-11-24T19:06:36.320Z,42.90
2022-11-24T19:09:18.737Z,46.67
2022-11-24T19:11:50.726Z,44.05
2022-11-24T19:14:22.702Z,43.13
2022-11-24T19:16:55.551Z,42.58
2022-11-24T19:19:29.052Z,37.72
2022-11-24T19:22:01.608Z,38.20
2022-11-24T19:24:33.803Z,42.88
2022-11-24T19:27:06.084Z,37.63
2022-11-24T19:29:42.821Z,39.00
2022-11-24T19:32:17.017Z,41.40
2022-11-24T19:34:49.029Z,51.63
2022-11-24T19:37:21.571Z,55.75
2022-11-24T19:39:53.730Z,49.55
2022-11-24T19:42:25.898Z,43.78
2022-11-24T19:44:57.935Z,59.25
2022-11-24T19:47:29.998Z,43.70
2022-11-24T19:50:06.022Z,43.08
2022-11-24T19:52:41.057Z,35.35
2022-11-24T19:55:13.115Z,44.05
2022-11-24T19:57:45.221Z,37.03
2022-11-24T20:00:18.060Z,36.90
2022-11-24T20:02:50.711Z,39.97
2022-11-24T20:05:22.746Z,48.35
2022-11-24T20:07:54.914Z,38.45
2022-11-24T20:10:26.993Z,38.15
2022-11-24T20:12:58.946Z,42.90
2022-11-24T20:15:30.927Z,39.47
2022-11-24T20:18:03.007Z,41.80
2022-11-24T20:20:34.970Z,43.88
2022-11-24T20:23:06.949Z,46.80
2022-11-24T20:25:39.091Z,49.65
2022-11-24T20:28:11.745Z,41.65
2022-11-24T20:30:43.762Z,35.45
2022-11-24T20:33:15.739Z,51.72
2022-11-24T20:35:47.728Z,44.47
2022-11-24T20:38:22.196Z,46.95
2022-11-24T20:41:09.870Z,54.95
2022-11-24T20:43:44.021Z,46.28
2022-11-24T20:46:20.732Z,40.13
2022-11-24T20:48:54.758Z,45.63
2022-11-24T20:51:34.013Z,43.47
2022-11-24T20:54:09.318Z,41.30
2022-11-24T20:56:43.544Z,46.38
2022-11-24T20:59:22.395Z,43.00
2022-11-24T21:01:59.249Z,51.72
2022-11-24T21:04:31.469Z,44.38
2022-11-24T21:07:03.927Z,45.38
2022-11-24T21:09:35.951Z,55.13
2022-11-24T21:12:08.041Z,50.67
2022-11-24T21:14:40.691Z,47.88
2022-11-24T21:17:14.285Z,49.20
2022-11-24T21:19:46.724Z,54.35
2022-11-24T21:22:18.775Z,66.15
2022-11-24T21:24:50.743Z,47.90
2022-11-24T21:27:22.747Z,55.60
2022-11-24T21:29:54.737Z,48.72
2022-11-24T21:32:28.152Z,52.38
2022-11-24T21:35:00.247Z,54.03
2022-11-24T21:37:32.311Z,50.60
2022-11-24T21:40:05.228Z,48.67
2022-11-24T21:42:37.255Z,46.78
2022-11-24T21:45:11.671Z,45.50
2022-11-24T21:47:46.476Z,55.58
2022-11-24T21:50:18.531Z,48.13
2022-11-24T21:52:50.699Z,45.33
2022-11-24T21:55:22.707Z,50.28
2022-11-24T21:57:54.900Z,52.08
2022-11-24T22:00:26.918Z,55.70
2022-11-24T22:02:58.862Z,51.65
2022-11-24T22:05:31.082Z,53.05
2022-11-24T22:08:04.648Z,51.38
2022-11-24T22:10:36.736Z,57.67
2022-11-24T22:13:08.898Z,52.83
2022-11-24T22:15:41.152Z,48.42
2022-11-24T22:18:13.347Z,51.15
2022-11-24T22:20:55.714Z,54.85
2022-11-24T22:23:27.758Z,50.85
2022-11-24T22:26:12.433Z,56.28
2022-11-24T22:28:45.553Z,51.63
2022-11-24T22:31:23.224Z,53.72
2022-11-24T22:33:57.376Z,53.78
2022-11-24T22:36:30.551Z,46.63
2022-11-24T22:39:06.057Z,52.22
2022-11-24T22:41:38.366Z,56.20
2022-11-24T22:44:10.401Z,44.03
2022-11-24T22:46:42.594Z,54.22
2022-11-24T22:49:14.753Z,51.58
2022-11-24T22:51:46.868Z,55.63
2022-11-24T22:54:18.981Z,52.20
2022-11-24T22:56:51.139Z,56.85
2022-11-24T22:59:23.330Z,48.03
2022-11-24T23:01:55.688Z,71.35
2022-11-24T23:04:27.773Z,57.25
2022-11-24T23:06:59.832Z,51.72
2022-11-24T23:09:31.995Z,57.13
2022-11-24T23:12:04.246Z,62.67
2022-11-24T23:14:36.521Z,61.90
2022-11-24T23:17:08.829Z,53.55
2022-11-24T23:19:41.253Z,63.33
2022-11-24T23:22:13.277Z,57.70
2022-11-24T23:24:45.297Z,54.10
2022-11-24T23:27:17.653Z,49.15
2022-11-24T23:29:49.780Z,45.97
2022-11-24T23:32:21.965Z,44.58
2022-11-24T23:34:53.996Z,45.88
2022-11-24T23:37:39.252Z,39.33
2022-11-24T23:40:18.321Z,50.90
2022-11-24T23:42:50.620Z,48.92
2022-11-24T23:45:23.233Z,49.63
2022-11-24T23:47:55.422Z,44.30
2022-11-24T23:50:27.555Z,44.53
2022-11-24T23:52:59.812Z,40.25
2022-11-24T23:55:31.842Z,43.45
2022-11-24T23:58:05.346Z,49.65
